Time;durP1;ratioP1;P1;durP2;ratioP2;P2;SDS_P1;SDS_P2;PMS_P1;PMS_P2;Temp;Humidity;BMP_temperature;BMP_pressure;BME280_temperature;BME280_humidity;BME280_pressure;Samples;Min_cycle;Max_cycle;Signal;HPM_P1;HPM_P2
2020/12/19 00:01:43;;;;;;;12.88;6.30;;;5.60;99.90;;;;;;5092600;28;20051;-87
2020/12/19 00:04:08;;;;;;;14.57;8.18;;;5.70;99.90;;;;;;5074642;28;20089;-88
2020/12/19 00:06:34;;;;;;;13.80;7.78;;;5.60;99.90;;;;;;5075369;28;20092;-88
2020/12/19 00:09:00;;;;;;;13.15;7.75;;;5.80;99.90;;;;;;5074711;28;20035;-87
2020/12/19 00:11:25;;;;;;;11.45;7.03;;;5.70;99.90;;;;;;5074448;28;20051;-89
2020/12/19 00:13:51;;;;;;;13.57;8.55;;;5.70;99.90;;;;;;5073574;28;20040;-88
2020/12/19 00:16:17;;;;;;;13.70;7.22;;;5.60;99.90;;;;;;5074562;28;20028;-88
2020/12/19 00:18:44;;;;;;;13.02;7.97;;;5.70;99.90;;;;;;5073639;28;20036;-88
2020/12/19 00:21:11;;;;;;;14.52;8.25;;;5.70;99.90;;;;;;5075747;28;20036;-88
2020/12/19 00:23:37;;;;;;;14.48;8.15;;;5.80;99.90;;;;;;5074426;28;20034;-88
2020/12/19 00:26:03;;;;;;;14.80;8.93;;;5.60;99.90;;;;;;5076060;28;20071;-88
2020/12/19 00:28:29;;;;;;;14.68;8.60;;;5.80;99.90;;;;;;5074421;28;20031;-88
2020/12/19 00:30:55;;;;;;;14.52;8.07;;;5.70;99.90;;;;;;5075900;28;20046;-89
2020/12/19 00:33:21;;;;;;;15.80;6.97;;;5.60;99.90;;;;;;5075423;28;20028;-88
2020/12/19 00:35:47;;;;;;;14.93;8.02;;;5.50;99.90;;;;;;5074491;28;20035;-90
2020/12/19 00:38:14;;;;;;;13.35;8.32;;;5.50;99.90;;;;;;5073576;28;20027;-88
2020/12/19 00:40:40;;;;;;;17.42;8.77;;;5.50;99.90;;;;;;5074052;28;20040;-88
2020/12/19 00:43:05;;;;;;;13.18;8.05;;;5.60;99.90;;;;;;5075324;28;20028;-87
2020/12/19 00:45:31;;;;;;;13.05;7.97;;;5.60;99.90;;;;;;5074811;28;20040;-88
2020/12/19 00:47:57;;;;;;;13.32;7.63;;;5.60;99.90;;;;;;5073402;28;20043;-88
2020/12/19 00:50:22;;;;;;;14.90;7.70;;;5.60;99.90;;;;;;5074458;28;20114;-88
2020/12/19 00:52:48;;;;;;;11.73;7.45;;;5.70;99.90;;;;;;5074684;28;20050;-89
2020/12/19 00:55:14;;;;;;;12.25;6.80;;;5.60;99.90;;;;;;5072666;28;20032;-89
2020/12/19 00:57:39;;;;;;;14.48;8.75;;;5.60;99.90;;;;;;5073181;28;20427;-86
2020/12/19 01:00:08;;;;;;;17.00;10.15;;;5.70;99.90;;;;;;5072713;28;20040;-90
2020/12/19 01:02:38;;;;;;;20.45;10.75;;;5.80;99.90;;;;;;5072697;28;20043;-91
2020/12/19 01:05:06;;;;;;;16.80;9.80;;;5.80;99.90;;;;;;5039897;28;20078;-89
2020/12/19 01:07:31;;;;;;;12.68;7.13;;;5.70;99.90;;;;;;5057501;28;20028;-88
2020/12/19 01:09:58;;;;;;;15.00;9.02;;;5.70;99.90;;;;;;5069938;28;20033;-88
2020/12/19 01:12:24;;;;;;;13.52;7.53;;;5.70;99.90;;;;;;5053416;28;20032;-88
2020/12/19 01:14:50;;;;;;;14.48;8.48;;;5.70;99.90;;;;;;5090732;28;20024;-90
2020/12/19 01:17:15;;;;;;;12.95;8.77;;;5.70;99.90;;;;;;5074109;28;20024;-88
2020/12/19 01:19:41;;;;;;;14.55;7.82;;;5.70;99.90;;;;;;5090900;28;20044;-87
2020/12/19 01:22:07;;;;;;;11.95;7.22;;;5.70;99.90;;;;;;5077108;28;20039;-89
2020/12/19 01:24:33;;;;;;;13.30;8.48;;;5.60;99.90;;;;;;5076897;28;20056;-88
2020/12/19 01:26:59;;;;;;;12.60;7.50;;;5.70;99.90;;;;;;5076685;28;20032;-89
2020/12/19 01:29:24;;;;;;;12.70;7.78;;;5.70;99.90;;;;;;5078091;28;20035;-88
2020/12/19 01:31:50;;;;;;;14.32;8.57;;;5.60;99.90;;;;;;5077466;28;20111;-87
2020/12/19 01:34:16;;;;;;;12.10;7.45;;;5.70;99.90;;;;;;5078923;28;20038;-88
2020/12/19 01:36:41;;;;;;;12.13;7.15;;;5.60;99.90;;;;;;5077417;28;20059;-87
2020/12/19 01:39:09;;;;;;;17.13;10.35;;;5.60;99.90;;;;;;5077605;28;20024;-87
2020/12/19 01:41:34;;;;;;;16.25;9.73;;;5.80;99.90;;;;;;5078692;28;20109;-87
2020/12/19 01:44:03;;;;;;;15.80;9.32;;;5.80;99.90;;;;;;5077934;28;20058;-88
2020/12/19 01:46:38;;;;;;;17.30;8.70;;;5.60;99.90;;;;;;5077137;28;20040;-88
2020/12/19 01:49:04;;;;;;;14.93;8.05;;;5.60;99.90;;;;;;5094182;28;20032;-90
2020/12/19 01:51:30;;;;;;;14.48;9.20;;;5.60;99.90;;;;;;5077380;28;20050;-89
2020/12/19 01:53:59;;;;;;;18.50;9.38;;;5.70;99.90;;;;;;5094116;28;20028;-87
2020/12/19 01:56:55;;;;;;;16.85;10.75;;;5.70;99.90;;;;;;5093876;28;20035;-89
2020/12/19 01:59:22;;;;;;;15.43;9.13;;;5.70;99.90;;;;;;5086792;28;20056;-88
2020/12/19 02:01:51;;;;;;;15.70;9.45;;;5.60;99.90;;;;;;5077301;28;20056;-91
2020/12/19 02:04:18;;;;;;;15.65;8.10;;;5.50;99.90;;;;;;5076274;28;20561;-88
2020/12/19 02:06:53;;;;;;;14.95;7.72;;;5.60;99.90;;;;;;5068890;28;20029;-88
2020/12/19 02:09:33;;;;;;;16.83;9.00;;;5.50;99.90;;;;;;5073555;28;20029;-90
2020/12/19 02:11:59;;;;;;;13.73;8.05;;;5.50;99.90;;;;;;5092935;28;20078;-87
2020/12/19 02:14:24;;;;;;;16.13;8.57;;;5.50;99.90;;;;;;5058368;28;20037;-89
2020/12/19 02:17:00;;;;;;;14.27;8.00;;;5.50;99.90;;;;;;5074117;28;20028;-90
2020/12/19 02:19:27;;;;;;;13.93;8.05;;;5.40;99.90;;;;;;5056205;28;20048;-87
2020/12/19 02:21:54;;;;;;;13.43;7.22;;;5.40;99.90;;;;;;5073491;28;20086;-88
2020/12/19 02:24:20;;;;;;;14.68;8.73;;;5.40;99.90;;;;;;5073463;28;20090;-86
2020/12/19 02:26:47;;;;;;;15.07;8.88;;;5.50;99.90;;;;;;5071970;28;20033;-90
2020/12/19 02:29:13;;;;;;;13.70;7.70;;;5.50;99.90;;;;;;5055945;28;20059;-89
2020/12/19 02:31:38;;;;;;;15.90;8.45;;;5.40;99.90;;;;;;5054424;28;20032;-87
2020/12/19 02:34:04;;;;;;;16.80;9.00;;;5.40;99.90;;;;;;5055257;28;20060;-88
2020/12/19 02:36:30;;;;;;;16.52;8.98;;;5.50;99.90;;;;;;5073245;28;20082;-88
2020/12/19 02:38:55;;;;;;;12.57;6.95;;;5.50;99.90;;;;;;5056136;28;20044;-88
2020/12/19 02:41:21;;;;;;;13.48;8.27;;;5.40;99.90;;;;;;5055574;28;20033;-87
2020/12/19 02:43:51;;;;;;;13.27;7.80;;;5.50;99.90;;;;;;5056336;28;20060;-89
2020/12/19 02:46:17;;;;;;;11.90;6.47;;;5.40;99.90;;;;;;5055901;28;20398;-90
2020/12/19 02:48:55;;;;;;;14.43;8.05;;;5.40;99.90;;;;;;5055292;28;20028;-88
2020/12/19 02:51:20;;;;;;;15.77;7.78;;;5.50;99.90;;;;;;5056365;28;20028;-89
2020/12/19 02:53:46;;;;;;;14.23;7.85;;;5.50;99.90;;;;;;5056811;28;20092;-88
2020/12/19 02:56:12;;;;;;;14.65;8.18;;;5.40;99.90;;;;;;5056004;28;20105;-86
2020/12/19 02:59:14;;;;;;;15.00;8.00;;;5.40;99.90;;;;;;5072255;28;20059;-87
2020/12/19 03:01:40;;;;;;;19.40;9.82;;;5.50;99.90;;;;;;5072573;28;20541;-87
2020/12/19 03:04:06;;;;;;;15.93;9.23;;;5.40;99.90;;;;;;5056297;28;20033;-87
2020/12/19 03:06:32;;;;;;;13.80;8.82;;;5.40;99.90;;;;;;5080115;28;20039;-86
2020/12/19 03:08:58;;;;;;;15.63;8.85;;;5.40;99.90;;;;;;5076288;28;20415;-90
2020/12/19 03:11:24;;;;;;;15.27;8.77;;;5.40;99.90;;;;;;5075524;28;20103;-87
2020/12/19 03:13:49;;;;;;;15.60;9.38;;;5.40;99.90;;;;;;5076939;28;20032;-87
2020/12/19 03:16:15;;;;;;;19.60;9.65;;;5.40;99.90;;;;;;5076870;28;20050;-87
2020/12/19 03:18:40;;;;;;;14.82;8.73;;;5.40;99.90;;;;;;5093945;28;20027;-88
2020/12/19 03:21:06;;;;;;;16.77;9.23;;;5.30;99.90;;;;;;5077916;28;20103;-91
2020/12/19 03:23:32;;;;;;;14.30;8.48;;;5.40;99.90;;;;;;5076637;28;20024;-89
2020/12/19 03:25:57;;;;;;;11.60;6.97;;;5.40;99.90;;;;;;5110909;28;20107;-89
2020/12/19 03:28:23;;;;;;;15.82;9.00;;;5.30;99.90;;;;;;5092693;28;20035;-88
2020/12/19 03:30:48;;;;;;;13.63;7.60;;;5.30;99.90;;;;;;5075123;28;20036;-89
2020/12/19 03:33:14;;;;;;;12.13;7.32;;;5.30;99.90;;;;;;5075291;28;20035;-89
2020/12/19 03:35:40;;;;;;;15.23;8.75;;;5.30;99.90;;;;;;5075340;28;20036;-89
2020/12/19 03:38:06;;;;;;;13.43;8.02;;;5.30;99.90;;;;;;5073903;28;20087;-93
2020/12/19 03:40:33;;;;;;;16.63;9.50;;;5.30;99.90;;;;;;5109636;28;20044;-90
2020/12/19 03:42:58;;;;;;;16.23;9.00;;;5.40;99.90;;;;;;5075151;28;20028;-88
2020/12/19 03:45:24;;;;;;;17.73;9.80;;;5.30;99.90;;;;;;5073980;28;20060;-88
2020/12/19 03:47:50;;;;;;;15.35;8.70;;;5.30;99.90;;;;;;5074989;28;20024;-89
2020/12/19 03:50:15;;;;;;;14.73;9.30;;;5.40;99.90;;;;;;5042989;28;20020;-90
2020/12/19 03:52:41;;;;;;;16.30;9.43;;;5.30;99.90;;;;;;5075096;28;20039;-86
2020/12/19 03:55:07;;;;;;;15.45;8.48;;;5.30;99.90;;;;;;5074135;28;20054;-89
2020/12/19 03:57:32;;;;;;;16.05;7.88;;;5.20;99.90;;;;;;5074319;28;20028;-89
2020/12/19 03:59:58;;;;;;;14.13;8.43;;;5.30;99.90;;;;;;5075086;28;20110;-89
2020/12/19 04:02:23;;;;;;;14.77;7.93;;;5.30;99.90;;;;;;5077246;28;20062;-89
2020/12/19 04:04:49;;;;;;;17.77;9.25;;;5.40;99.90;;;;;;5076068;28;20035;-90
2020/12/19 04:07:15;;;;;;;16.05;8.57;;;5.30;99.90;;;;;;5062476;28;20036;-88
2020/12/19 04:09:40;;;;;;;13.32;7.82;;;5.30;99.90;;;;;;5070972;28;20040;-90
2020/12/19 04:12:07;;;;;;;16.10;7.28;;;5.20;99.90;;;;;;5052947;28;20096;-88
2020/12/19 04:14:39;;;;;;;16.52;9.70;;;5.20;99.90;;;;;;5055090;28;20044;-88
2020/12/19 04:17:25;;;;;;;16.15;8.13;;;5.30;99.90;;;;;;5075481;28;20078;-91
2020/12/19 04:19:51;;;;;;;16.77;9.40;;;5.30;99.90;;;;;;5074500;28;20036;-88
2020/12/19 04:22:16;;;;;;;15.73;9.38;;;5.40;99.90;;;;;;5075194;28;20490;-87
2020/12/19 04:24:42;;;;;;;17.55;9.45;;;5.40;99.90;;;;;;5073702;28;20047;-90
2020/12/19 04:27:08;;;;;;;13.80;8.82;;;5.40;99.90;;;;;;5074635;28;20024;-90
2020/12/19 04:29:34;;;;;;;17.52;9.57;;;5.40;99.90;;;;;;5074147;28;20039;-88
2020/12/19 04:31:59;;;;;;;15.88;9.13;;;5.40;99.90;;;;;;5091631;28;20024;-88
2020/12/19 04:34:26;;;;;;;15.93;9.15;;;5.40;99.90;;;;;;5066415;28;20052;-89
2020/12/19 04:36:52;;;;;;;16.33;7.65;;;5.40;99.90;;;;;;5053768;28;20028;-91
2020/12/19 04:39:18;;;;;;;16.95;8.93;;;5.40;99.90;;;;;;5069872;28;20055;-86
2020/12/19 04:41:44;;;;;;;17.05;9.50;;;5.40;99.90;;;;;;5053283;28;20052;-90
2020/12/19 04:44:10;;;;;;;13.57;7.78;;;5.40;99.90;;;;;;5053350;28;20086;-90
2020/12/19 04:46:40;;;;;;;15.05;8.00;;;5.30;99.90;;;;;;5054072;28;20230;-89
2020/12/19 04:49:06;;;;;;;14.63;7.80;;;5.30;99.90;;;;;;5054541;28;20043;-87
2020/12/19 04:51:33;;;;;;;14.50;8.20;;;5.40;99.90;;;;;;5053459;28;20037;-92
2020/12/19 04:53:59;;;;;;;16.13;8.05;;;5.40;99.90;;;;;;5052840;28;20036;-90
2020/12/19 04:56:27;;;;;;;17.55;9.38;;;5.40;99.90;;;;;;5052011;28;20074;-89
2020/12/19 04:58:54;;;;;;;15.95;8.25;;;5.40;99.90;;;;;;5051918;28;20028;-90
2020/12/19 05:01:20;;;;;;;15.27;8.65;;;5.40;99.90;;;;;;5052387;28;20480;-89
2020/12/19 05:04:12;;;;;;;13.80;7.45;;;5.30;99.90;;;;;;5052387;28;20032;-90
2020/12/19 05:06:37;;;;;;;13.77;7.35;;;5.30;99.90;;;;;;4970307;28;20449;-86
2020/12/19 05:09:03;;;;;;;16.00;8.65;;;5.20;99.90;;;;;;5009636;28;20090;-89
2020/12/19 05:11:28;;;;;;;15.63;8.68;;;5.50;99.90;;;;;;5007760;28;20097;-89
2020/12/19 05:13:54;;;;;;;14.23;7.90;;;5.50;99.90;;;;;;5008812;28;20065;-89
2020/12/19 05:16:20;;;;;;;15.02;8.73;;;5.40;99.90;;;;;;4993550;28;20026;-90
2020/12/19 05:18:46;;;;;;;13.48;7.68;;;5.40;99.90;;;;;;4971736;28;20038;-90
2020/12/19 05:21:12;;;;;;;12.65;7.28;;;5.30;99.90;;;;;;4972136;28;20042;-87
2020/12/19 05:23:41;;;;;;;15.18;8.32;;;5.30;99.90;;;;;;4988508;28;20034;-89
2020/12/19 05:26:09;;;;;;;13.40;7.72;;;5.30;99.90;;;;;;4972367;28;20046;-87
2020/12/19 05:28:36;;;;;;;17.58;8.98;;;5.20;99.90;;;;;;4989397;28;20514;-87
2020/12/19 05:31:03;;;;;;;13.93;7.55;;;5.30;99.90;;;;;;4972355;28;20110;-89
2020/12/19 05:33:36;;;;;;;12.48;7.50;;;5.30;99.90;;;;;;4988909;28;20035;-89
2020/12/19 05:36:03;;;;;;;16.17;7.95;;;5.30;99.90;;;;;;4972961;28;20039;-90
2020/12/19 05:38:38;;;;;;;17.30;9.85;;;5.30;99.90;;;;;;4988415;28;20486;-88
2020/12/19 05:41:04;;;;;;;13.25;8.18;;;5.50;99.90;;;;;;4972582;28;20049;-89
2020/12/19 05:43:30;;;;;;;14.55;7.90;;;5.30;99.90;;;;;;5018154;28;20042;-91
2020/12/19 05:45:56;;;;;;;14.23;7.40;;;5.30;99.90;;;;;;5072891;28;20060;-90
2020/12/19 05:48:22;;;;;;;12.10;7.53;;;5.40;99.90;;;;;;5073415;28;20024;-84
2020/12/19 05:50:47;;;;;;;15.45;8.93;;;5.30;99.90;;;;;;5072940;28;20059;-88
2020/12/19 05:53:14;;;;;;;16.67;9.35;;;5.40;99.90;;;;;;5073631;28;20099;-93
2020/12/19 05:55:40;;;;;;;18.08;9.73;;;5.40;99.90;;;;;;5071911;28;20054;-91
2020/12/19 05:58:09;;;;;;;15.93;9.60;;;5.40;99.90;;;;;;5072062;28;20036;-91
2020/12/19 06:00:34;;;;;;;15.18;8.38;;;5.40;99.90;;;;;;5071199;28;20048;-89
2020/12/19 06:03:05;;;;;;;12.75;7.60;;;5.40;99.90;;;;;;5071722;28;20020;-91
2020/12/19 06:05:32;;;;;;;18.02;11.23;;;5.40;99.90;;;;;;5070495;28;20039;-87
2020/12/19 06:08:00;;;;;;;15.85;9.40;;;5.50;99.90;;;;;;5071440;28;20036;-90
2020/12/19 06:10:26;;;;;;;16.40;9.70;;;5.40;99.90;;;;;;5071675;28;20040;-91
2020/12/19 06:13:18;;;;;;;18.25;9.68;;;5.50;99.90;;;;;;5071878;28;20028;-89
2020/12/19 06:16:00;;;;;;;14.43;9.13;;;5.50;99.90;;;;;;5062334;28;20041;-91
2020/12/19 06:18:47;;;;;;;14.85;8.63;;;5.50;99.90;;;;;;5054630;28;20029;-90
2020/12/19 06:21:13;;;;;;;17.65;9.75;;;5.50;99.90;;;;;;5054539;28;20045;-86
2020/12/19 06:23:40;;;;;;;14.38;7.90;;;5.60;99.90;;;;;;5071002;28;20024;-90
2020/12/19 06:26:07;;;;;;;12.10;7.72;;;5.50;99.90;;;;;;5054482;28;20047;-88
2020/12/19 06:28:42;;;;;;;12.93;7.32;;;5.50;99.90;;;;;;5071286;28;20048;-90
2020/12/19 06:31:09;;;;;;;14.32;8.57;;;5.50;99.90;;;;;;5055031;28;20032;-89
2020/12/19 06:33:39;;;;;;;16.38;8.98;;;5.50;99.90;;;;;;5054261;28;20039;-89
2020/12/19 06:36:26;;;;;;;18.90;9.57;;;5.60;99.90;;;;;;5071136;28;20032;-88
2020/12/19 06:38:55;;;;;;;16.17;9.77;;;5.50;99.90;;;;;;5071106;28;20039;-89
2020/12/19 06:41:55;;;;;;;16.10;9.73;;;5.50;99.90;;;;;;5071241;28;20043;-87
2020/12/19 06:44:33;;;;;;;15.60;9.70;;;5.50;99.90;;;;;;5054189;28;20035;-88
2020/12/19 06:47:01;;;;;;;16.50;9.10;;;5.50;99.90;;;;;;5070784;28;20500;-88
2020/12/19 06:49:35;;;;;;;13.88;8.65;;;5.50;99.90;;;;;;5054284;28;20028;-89
2020/12/19 06:52:13;;;;;;;14.57;9.10;;;5.60;99.90;;;;;;5053777;28;20024;-88
2020/12/19 06:54:40;;;;;;;17.38;8.80;;;5.50;99.90;;;;;;5053921;28;20036;-87
2020/12/19 06:57:33;;;;;;;12.55;7.95;;;5.50;99.90;;;;;;5053889;28;20035;-87
2020/12/19 07:00:20;;;;;;;15.10;8.45;;;5.40;99.90;;;;;;5053418;28;20036;-88
2020/12/19 07:02:51;;;;;;;18.08;9.10;;;5.40;99.90;;;;;;5053446;28;20032;-87
2020/12/19 07:05:31;;;;;;;13.30;6.90;;;5.50;99.90;;;;;;5053223;28;20070;-89
2020/12/19 07:08:20;;;;;;;14.48;6.82;;;5.40;99.90;;;;;;5085928;28;20043;-86
2020/12/19 07:10:47;;;;;;;15.13;8.45;;;5.50;99.90;;;;;;5070818;28;20024;-87
2020/12/19 07:13:13;;;;;;;15.55;8.85;;;5.50;99.90;;;;;;5069944;28;20036;-90
2020/12/19 07:15:49;;;;;;;15.27;7.85;;;5.50;99.90;;;;;;5059590;28;20032;-91
2020/12/19 07:18:33;;;;;;;15.00;8.38;;;5.50;99.90;;;;;;5052831;28;20056;-87
2020/12/19 07:21:03;;;;;;;11.63;6.78;;;5.50;99.90;;;;;;5053074;28;20544;-87
2020/12/19 07:23:32;;;;;;;13.90;8.23;;;5.60;99.90;;;;;;5053481;28;20032;-89
2020/12/19 07:25:58;;;;;;;18.10;9.43;;;5.50;99.90;;;;;;5053492;28;20088;-88
2020/12/19 07:28:23;;;;;;;15.60;9.98;;;5.60;99.90;;;;;;5053101;28;20055;-88
2020/12/19 07:30:49;;;;;;;16.52;9.57;;;5.60;99.90;;;;;;5053458;28;20032;-88
2020/12/19 07:33:15;;;;;;;16.23;9.50;;;5.60;99.90;;;;;;5053079;28;20020;-88
2020/12/19 07:35:41;;;;;;;15.05;7.88;;;5.60;99.90;;;;;;5052784;28;20032;-88
2020/12/19 07:38:07;;;;;;;16.40;10.02;;;5.60;99.90;;;;;;5052965;28;20110;-88
2020/12/19 07:40:33;;;;;;;15.23;8.80;;;5.60;99.90;;;;;;5052718;28;20512;-91
2020/12/19 07:43:08;;;;;;;13.07;7.88;;;5.70;99.90;;;;;;5052620;28;20043;-88
2020/12/19 07:45:35;;;;;;;18.70;9.23;;;5.70;99.90;;;;;;5052698;28;20036;-90
2020/12/19 07:48:11;;;;;;;12.00;7.30;;;5.70;99.90;;;;;;5052459;28;20033;-87
2020/12/19 07:50:37;;;;;;;15.25;8.98;;;5.60;99.90;;;;;;5052568;28;20040;-88
2020/12/19 07:53:08;;;;;;;12.23;7.03;;;5.70;99.90;;;;;;5052035;28;20032;-89
2020/12/19 07:55:36;;;;;;;15.30;8.73;;;5.70;99.90;;;;;;5051945;28;20036;-89
2020/12/19 07:58:05;;;;;;;15.52;8.85;;;5.80;99.90;;;;;;5058562;28;20029;-88
2020/12/19 08:00:31;;;;;;;16.92;8.85;;;5.80;99.90;;;;;;5058268;28;20067;-88
2020/12/19 08:02:57;;;;;;;13.93;8.55;;;5.80;99.90;;;;;;5070311;28;20020;-85
2020/12/19 08:05:23;;;;;;;13.02;8.95;;;5.80;99.90;;;;;;5069569;28;20036;-86
2020/12/19 08:07:51;;;;;;;13.50;8.07;;;5.80;99.90;;;;;;5069829;28;20088;-85
2020/12/19 08:10:17;;;;;;;14.40;7.55;;;5.80;99.90;;;;;;5065845;28;20021;-84
2020/12/19 08:12:43;;;;;;;17.25;9.88;;;5.80;99.90;;;;;;5069617;28;20055;-85
2020/12/19 08:15:29;;;;;;;16.55;9.48;;;5.80;99.90;;;;;;5067454;28;20044;-87
2020/12/19 08:18:03;;;;;;;17.02;8.82;;;5.90;99.90;;;;;;5068094;28;20028;-86
2020/12/19 08:20:38;;;;;;;14.70;8.68;;;6.00;99.90;;;;;;5067825;28;20036;-86
2020/12/19 08:23:08;;;;;;;16.35;8.80;;;5.90;99.90;;;;;;5068087;28;20091;-85
2020/12/19 08:25:38;;;;;;;13.15;8.25;;;6.00;99.90;;;;;;5067868;28;20056;-87
2020/12/19 08:28:04;;;;;;;13.10;7.88;;;6.10;99.90;;;;;;5067264;28;20032;-86
2020/12/19 08:30:32;;;;;;;15.60;9.23;;;6.10;99.90;;;;;;5067773;28;20066;-85
2020/12/19 08:33:03;;;;;;;16.50;9.32;;;6.30;99.90;;;;;;5067638;28;20043;-88
2020/12/19 08:35:30;;;;;;;13.85;8.00;;;6.20;99.90;;;;;;5067919;28;20016;-88
2020/12/19 08:38:03;;;;;;;14.65;8.02;;;6.20;99.90;;;;;;5051045;28;20100;-86
2020/12/19 08:40:34;;;;;;;13.93;8.02;;;6.20;99.90;;;;;;5067543;28;20044;-85
2020/12/19 08:43:00;;;;;;;16.65;9.18;;;6.30;99.90;;;;;;5067550;28;20135;-86
2020/12/19 08:45:31;;;;;;;12.45;7.78;;;6.40;99.90;;;;;;5067693;28;20484;-85
2020/12/19 08:48:19;;;;;;;17.95;9.02;;;6.40;99.90;;;;;;5067771;28;20028;-88
2020/12/19 08:50:46;;;;;;;13.55;7.95;;;6.50;99.90;;;;;;5050822;28;20044;-86
2020/12/19 08:53:25;;;;;;;15.00;8.77;;;6.50;99.90;;;;;;5067682;28;20043;-86
2020/12/19 08:55:52;;;;;;;15.43;8.98;;;6.50;99.90;;;;;;5067504;28;20062;-86
2020/12/19 08:58:31;;;;;;;14.70;9.07;;;6.60;99.90;;;;;;5050832;28;20028;-86
2020/12/19 09:01:00;;;;;;;15.25;7.43;;;6.60;99.90;;;;;;5067322;28;20076;-85
2020/12/19 09:03:30;;;;;;;15.70;8.98;;;6.70;99.90;;;;;;5067637;28;20033;-87
2020/12/19 09:06:06;;;;;;;14.75;8.55;;;6.80;99.90;;;;;;5066336;28;20028;-85
2020/12/19 09:08:40;;;;;;;14.10;8.25;;;6.80;99.90;;;;;;5067005;28;20029;-87
2020/12/19 09:11:08;;;;;;;14.18;8.70;;;6.90;99.90;;;;;;5067740;28;20024;-86
2020/12/19 09:13:35;;;;;;;15.40;8.20;;;6.80;99.90;;;;;;5068660;28;20028;-87
2020/12/19 09:16:09;;;;;;;12.27;7.57;;;6.90;99.90;;;;;;5059805;28;20029;-87
2020/12/19 09:18:36;;;;;;;12.60;7.57;;;7.00;99.90;;;;;;5068192;28;20028;-86
2020/12/19 09:21:03;;;;;;;14.13;9.07;;;7.10;99.90;;;;;;5061430;28;20032;-87
2020/12/19 09:23:30;;;;;;;12.43;8.02;;;7.20;99.90;;;;;;5076297;28;20387;-86
2020/12/19 09:25:57;;;;;;;17.73;11.50;;;7.30;99.90;;;;;;5059550;28;20040;-85
2020/12/19 09:28:24;;;;;;;16.55;9.20;;;7.50;99.90;;;;;;5068074;28;20050;-86
2020/12/19 09:30:53;;;;;;;13.27;8.82;;;7.50;99.90;;;;;;5058525;28;20033;-86
2020/12/19 09:33:20;;;;;;;16.40;9.45;;;7.50;99.90;;;;;;5077793;28;20020;-85
2020/12/19 09:35:46;;;;;;;16.23;9.10;;;7.60;99.90;;;;;;5063973;28;20036;-86
2020/12/19 09:38:12;;;;;;;14.10;8.60;;;7.60;99.90;;;;;;5058351;28;20028;-86
2020/12/19 09:40:38;;;;;;;13.32;9.32;;;7.70;99.90;;;;;;5076954;28;20089;-87
2020/12/19 09:43:15;;;;;;;16.70;9.65;;;7.70;99.90;;;;;;5072808;28;20484;-87
2020/12/19 09:45:40;;;;;;;15.73;9.48;;;7.90;99.90;;;;;;5069524;28;20031;-86
2020/12/19 09:48:09;;;;;;;14.55;9.77;;;8.00;99.90;;;;;;5062880;28;20028;-88
2020/12/19 09:50:35;;;;;;;17.83;11.00;;;8.00;99.90;;;;;;5071265;28;20028;-88
2020/12/19 09:53:01;;;;;;;15.93;9.68;;;8.10;99.90;;;;;;5072228;28;20055;-86
2020/12/19 09:55:27;;;;;;;16.38;10.40;;;8.10;99.90;;;;;;5070780;28;20029;-87
2020/12/19 09:57:53;;;;;;;15.35;9.77;;;8.20;99.90;;;;;;5069395;28;20028;-88
2020/12/19 10:00:19;;;;;;;15.85;10.73;;;8.20;99.90;;;;;;5084191;28;20039;-88
2020/12/19 10:02:46;;;;;;;14.77;9.40;;;8.30;99.90;;;;;;5054173;28;20042;-87
2020/12/19 10:05:13;;;;;;;16.48;10.27;;;8.40;99.90;;;;;;5067334;28;20078;-88
2020/12/19 10:07:38;;;;;;;18.17;10.68;;;8.50;99.90;;;;;;5066457;28;20048;-88
2020/12/19 10:10:05;;;;;;;15.27;9.98;;;8.40;99.90;;;;;;5086159;28;20056;-88
2020/12/19 10:12:31;;;;;;;14.52;10.10;;;8.50;99.90;;;;;;5058494;28;20044;-88
2020/12/19 10:14:56;;;;;;;14.13;9.13;;;8.60;99.90;;;;;;5071682;28;20048;-89
2020/12/19 10:17:22;;;;;;;17.80;11.30;;;8.70;99.90;;;;;;5058652;28;20039;-87
2020/12/19 10:19:48;;;;;;;16.63;10.95;;;8.80;99.90;;;;;;5063844;28;20099;-88
2020/12/19 10:22:13;;;;;;;15.43;9.95;;;8.90;99.90;;;;;;5088309;28;20031;-88
2020/12/19 10:24:40;;;;;;;16.67;10.32;;;9.00;99.90;;;;;;5066285;28;20048;-88
2020/12/19 10:27:05;;;;;;;16.52;10.07;;;9.10;99.90;;;;;;5041406;28;20057;-89
2020/12/19 10:29:31;;;;;;;15.82;10.40;;;9.20;99.90;;;;;;5054728;28;20083;-87
2020/12/19 10:31:57;;;;;;;14.52;10.27;;;9.30;99.90;;;;;;5047693;28;20108;-89
2020/12/19 10:34:22;;;;;;;15.70;9.70;;;9.30;99.90;;;;;;5052086;28;20078;-86
2020/12/19 10:36:52;;;;;;;15.07;9.38;;;9.30;99.90;;;;;;5049726;28;20017;-89
2020/12/19 10:39:18;;;;;;;14.52;8.95;;;9.20;99.90;;;;;;5040228;28;20064;-89
2020/12/19 10:41:48;;;;;;;15.68;9.93;;;9.30;99.90;;;;;;5046800;28;20485;-86
2020/12/19 10:44:21;;;;;;;16.38;9.10;;;9.40;99.90;;;;;;5040999;28;20044;-87
2020/12/19 10:46:46;;;;;;;17.13;9.88;;;9.40;99.90;;;;;;5049529;28;20025;-88
2020/12/19 10:49:15;;;;;;;13.45;8.95;;;9.50;99.90;;;;;;5033082;28;20443;-90
2020/12/19 10:51:40;;;;;;;13.43;9.18;;;9.50;99.90;;;;;;5047726;28;20039;-88
2020/12/19 10:54:06;;;;;;;15.35;9.48;;;9.50;99.90;;;;;;5068564;28;20103;-88
2020/12/19 10:56:35;;;;;;;13.50;8.45;;;9.50;99.90;;;;;;5060221;28;20025;-86
2020/12/19 10:59:01;;;;;;;12.85;8.30;;;9.50;99.90;;;;;;5037699;28;20040;-87
2020/12/19 11:01:26;;;;;;;11.32;8.07;;;9.60;99.90;;;;;;5032651;28;20049;-89
2020/12/19 11:04:12;;;;;;;12.30;8.27;;;9.50;99.90;;;;;;5050207;28;20100;-88
2020/12/19 11:06:38;;;;;;;14.38;8.98;;;9.50;99.90;;;;;;4972360;28;20166;-88
2020/12/19 11:09:03;;;;;;;11.95;9.35;;;9.60;99.90;;;;;;4955683;29;20047;-90
2020/12/19 11:11:29;;;;;;;12.55;8.20;;;9.70;99.90;;;;;;4962131;28;20162;-89
2020/12/19 11:13:56;;;;;;;11.43;9.10;;;9.70;99.90;;;;;;4969592;28;20030;-89
2020/12/19 11:16:26;;;;;;;11.65;7.75;;;9.70;99.90;;;;;;4965611;28;20027;-89
2020/12/19 11:19:00;;;;;;;10.75;7.30;;;9.70;99.90;;;;;;4953173;28;20049;-89
2020/12/19 11:21:26;;;;;;;9.20;6.22;;;9.70;99.90;;;;;;4969299;28;20043;-89
2020/12/19 11:23:52;;;;;;;12.05;7.25;;;9.70;99.90;;;;;;4953092;28;20035;-88
2020/12/19 11:26:21;;;;;;;11.98;7.63;;;9.80;99.90;;;;;;4987876;28;20061;-89
2020/12/19 11:28:49;;;;;;;9.67;6.43;;;9.80;99.90;;;;;;4991104;28;20053;-87
2020/12/19 11:31:15;;;;;;;10.05;7.25;;;9.80;99.90;;;;;;4982231;28;20295;-89
2020/12/19 11:33:41;;;;;;;10.02;6.20;;;9.90;99.90;;;;;;4994880;28;20408;-88
2020/12/19 11:36:07;;;;;;;10.40;6.90;;;9.90;99.90;;;;;;5000647;28;20044;-89
2020/12/19 11:38:32;;;;;;;10.13;6.75;;;9.90;99.90;;;;;;5024969;28;20053;-89
2020/12/19 11:40:58;;;;;;;13.15;7.28;;;10.00;99.90;;;;;;4997103;28;20057;-84
2020/12/19 11:43:23;;;;;;;9.73;6.72;;;10.00;99.90;;;;;;5003177;28;20053;-89
2020/12/19 11:45:52;;;;;;;9.15;5.82;;;10.00;99.90;;;;;;5048440;28;20400;-87
2020/12/19 11:48:24;;;;;;;9.15;5.82;;;10.10;99.90;;;;;;5063741;28;20029;-88
2020/12/19 11:50:49;;;;;;;9.05;6.13;;;10.00;99.90;;;;;;5056486;28;20028;-88
2020/12/19 11:53:15;;;;;;;8.38;5.45;;;10.10;99.90;;;;;;5071353;28;20035;-91
2020/12/19 11:55:40;;;;;;;9.77;7.07;;;10.10;99.90;;;;;;5081896;28;20036;-89
2020/12/19 11:58:06;;;;;;;14.00;7.55;;;10.10;99.90;;;;;;5047659;28;20033;-88
2020/12/19 12:00:31;;;;;;;10.07;6.10;;;10.20;99.90;;;;;;5040128;28;20036;-88
2020/12/19 12:02:57;;;;;;;12.32;7.25;;;10.20;99.90;;;;;;5077272;28;20051;-88
2020/12/19 12:05:23;;;;;;;9.23;5.68;;;10.30;99.90;;;;;;5050307;28;20503;-88
2020/12/19 12:07:49;;;;;;;9.40;6.10;;;10.40;99.90;;;;;;5063504;28;20025;-89
2020/12/19 12:10:15;;;;;;;10.73;5.97;;;10.40;99.90;;;;;;5064067;28;20029;-89
2020/12/19 12:12:40;;;;;;;11.50;7.72;;;10.40;99.90;;;;;;5039842;28;20074;-89
2020/12/19 12:15:06;;;;;;;8.45;6.07;;;10.50;99.90;;;;;;5042991;28;20036;-88
2020/12/19 12:17:32;;;;;;;9.73;6.45;;;10.50;99.90;;;;;;5046585;28;20036;-89
2020/12/19 12:19:57;;;;;;;10.40;6.53;;;10.60;99.90;;;;;;5075260;28;20090;-90
2020/12/19 12:22:23;;;;;;;8.98;5.65;;;10.60;99.90;;;;;;5066096;28;20028;-88
2020/12/19 12:24:48;;;;;;;11.73;6.72;;;10.60;99.90;;;;;;5070065;28;20044;-89
2020/12/19 12:27:16;;;;;;;10.05;6.32;;;10.60;99.90;;;;;;5061057;28;20471;-89
2020/12/19 12:29:42;;;;;;;10.55;7.25;;;10.60;99.90;;;;;;5069025;28;20081;-89
2020/12/19 12:32:07;;;;;;;11.85;7.07;;;10.60;99.90;;;;;;5076432;28;20053;-88
2020/12/19 12:34:33;;;;;;;10.77;5.82;;;10.60;99.90;;;;;;5061058;28;20052;-90
2020/12/19 12:36:59;;;;;;;9.18;5.85;;;10.50;99.90;;;;;;5054164;28;20042;-89
2020/12/19 12:39:24;;;;;;;11.95;5.80;;;10.60;99.90;;;;;;5047051;28;20033;-90
2020/12/19 12:41:50;;;;;;;7.18;4.90;;;10.70;99.90;;;;;;5065007;28;20119;-90
2020/12/19 12:44:16;;;;;;;7.75;4.80;;;10.70;99.90;;;;;;5066936;28;20110;-89
2020/12/19 12:46:41;;;;;;;6.03;3.80;;;10.70;99.90;;;;;;5041717;28;20499;-90
2020/12/19 12:49:07;;;;;;;6.25;4.60;;;10.70;99.90;;;;;;5055550;28;20051;-88
2020/12/19 12:51:32;;;;;;;6.43;4.13;;;10.70;99.90;;;;;;5055609;28;20146;-89